createdAt,value
2023-05-17T00:00:47.614Z,101930.34
2023-05-17T00:04:50.473Z,101936.63
2023-05-17T00:08:53.341Z,101943.28
2023-05-17T00:12:56.098Z,101939.56
2023-05-17T00:17:00.208Z,101938.72
2023-05-17T00:21:03.041Z,101935.56
2023-05-17T00:25:06.632Z,101937.88
2023-05-17T00:29:09.458Z,101944.13
2023-05-17T00:33:13.593Z,101940.13
2023-05-17T00:37:17.319Z,101942.41
2023-05-17T00:41:20.115Z,101949.09
2023-05-17T00:45:23.092Z,101937.63
2023-05-17T00:49:27.602Z,101944.94
2023-05-17T00:53:30.924Z,101942.63
2023-05-17T00:57:34.123Z,101944.94
2023-05-17T01:01:38.990Z,101943.88
2023-05-17T01:05:43.415Z,101937.97
2023-05-17T01:09:46.561Z,101944.44
2023-05-17T01:13:54.651Z,101946.28
2023-05-17T01:18:06.158Z,101948.97
2023-05-17T01:22:18.652Z,101949.19
2023-05-17T01:26:34.780Z,101945.19
2023-05-17T01:30:39.046Z,101943.75
2023-05-17T01:34:42.711Z,101947.75
2023-05-17T01:38:45.581Z,101941.50
2023-05-17T01:42:55.560Z,101947.31
2023-05-17T01:47:03.446Z,101950.47
2023-05-17T01:51:09.993Z,101957.09
2023-05-17T01:55:22.746Z,101953.53
2023-05-17T01:59:28.526Z,101967.56
2023-05-17T02:03:31.623Z,101962.72
2023-05-17T02:07:34.408Z,101955.84
2023-05-17T02:11:37.861Z,101964.38
2023-05-17T02:15:42.112Z,101962.94
2023-05-17T02:19:45.214Z,101968.78
2023-05-17T02:23:48.062Z,101976.06
2023-05-17T02:27:50.798Z,101982.13
2023-05-17T02:31:54.959Z,101982.31
2023-05-17T02:35:57.732Z,101976.72
2023-05-17T02:40:00.875Z,101992.13
2023-05-17T02:44:03.757Z,101986.75
2023-05-17T02:48:08.619Z,101987.41
2023-05-17T02:52:11.500Z,101988.44
2023-05-17T02:56:15.214Z,101989.44
2023-05-17T03:00:18.994Z,101997.97
2023-05-17T03:04:23.238Z,102014.81
2023-05-17T03:08:26.540Z,102009.84
2023-05-17T03:12:30.301Z,102017.56
2023-05-17T03:16:33.872Z,102012.34
2023-05-17T03:20:38.849Z,102022.34
2023-05-17T03:24:42.535Z,102020.69
2023-05-17T03:28:46.310Z,102034.63
2023-05-17T03:32:49.352Z,102039.63
2023-05-17T03:36:53.472Z,102039.78
2023-05-17T03:40:56.499Z,102049.34
2023-05-17T03:45:00.047Z,102055.81
2023-05-17T03:49:03.674Z,102052.84
2023-05-17T03:53:10.774Z,102056.56
2023-05-17T03:57:14.728Z,102055.88
2023-05-17T04:01:20.233Z,102056.22
2023-05-17T04:05:24.338Z,102064.38
2023-05-17T04:09:28.905Z,102070.84
2023-05-17T04:13:31.702Z,102068.25
2023-05-17T04:17:34.577Z,102078.00
2023-05-17T04:21:37.442Z,102081.75
2023-05-17T04:25:42.274Z,102088.84
2023-05-17T04:29:45.021Z,102092.88
2023-05-17T04:33:48.075Z,102091.25
2023-05-17T04:37:51.687Z,102095.50
2023-05-17T04:41:58.791Z,102098.84
2023-05-17T04:46:02.726Z,102101.00
2023-05-17T04:50:06.394Z,102116.78
2023-05-17T04:54:17.085Z,102118.31
2023-05-17T04:58:21.504Z,102124.34
2023-05-17T05:02:29.351Z,102133.53
2023-05-17T05:06:32.302Z,102132.97
2023-05-17T05:10:35.190Z,102139.66
2023-05-17T05:14:39.804Z,102139.91
2023-05-17T05:18:43.418Z,102153.28
2023-05-17T05:22:46.370Z,102154.72
2023-05-17T05:26:50.080Z,102153.75
2023-05-17T05:31:00.436Z,102160.84
2023-05-17T05:35:11.375Z,102175.69
2023-05-17T05:39:14.497Z,102168.41
2023-05-17T05:43:17.507Z,102178.66
2023-05-17T05:47:21.718Z,102184.41
2023-05-17T05:51:31.697Z,102188.22
2023-05-17T05:55:34.730Z,102193.03
2023-05-17T05:59:37.568Z,102207.81
2023-05-17T06:03:41.824Z,102202.31
2023-05-17T06:07:44.554Z,102209.00
2023-05-17T06:11:47.351Z,102226.28
2023-05-17T06:15:50.102Z,102224.38
2023-05-17T06:19:55.063Z,102228.88
2023-05-17T06:23:58.671Z,102234.28
2023-05-17T06:28:03.607Z,102237.47
2023-05-17T06:32:07.348Z,102246.06
2023-05-17T06:36:12.769Z,102241.91
2023-05-17T06:40:17.111Z,102238.50
2023-05-17T06:44:20.213Z,102246.69
2023-05-17T06:48:23.158Z,102253.09
2023-05-17T06:52:27.502Z,102253.91
2023-05-17T06:56:30.375Z,102253.78
2023-05-17T07:00:33.382Z,102258.41
2023-05-17T07:04:36.636Z,102259.66
2023-05-17T07:08:41.223Z,102268.38
2023-05-17T07:12:44.096Z,102273.00
2023-05-17T07:16:48.102Z,102273.44
2023-05-17T07:20:50.898Z,102274.56
2023-05-17T07:24:57.823Z,102279.09
2023-05-17T07:29:00.859Z,102277.53
2023-05-17T07:33:03.729Z,102285.69
2023-05-17T07:37:06.538Z,102295.84
2023-05-17T07:41:11.077Z,102292.56
2023-05-17T07:45:13.847Z,102298.22
2023-05-17T07:49:16.780Z,102309.19
2023-05-17T07:53:19.669Z,102310.03
2023-05-17T07:57:23.752Z,102307.47
2023-05-17T08:01:26.842Z,102317.94
2023-05-17T08:05:29.868Z,102319.97
2023-05-17T08:09:32.860Z,102320.41
2023-05-17T08:13:36.967Z,102326.63
2023-05-17T08:17:40.251Z,102324.53
2023-05-17T08:21:43.806Z,102324.59
2023-05-17T08:25:46.643Z,102333.34
2023-05-17T08:29:51.837Z,102325.28
2023-05-17T08:33:54.679Z,102325.44
2023-05-17T08:37:57.659Z,102318.34
2023-05-17T08:42:02.531Z,102328.16
2023-05-17T08:46:07.010Z,102321.72
2023-05-17T08:50:11.169Z,102332.81
2023-05-17T08:54:14.301Z,102325.94
2023-05-17T08:58:23.214Z,102341.63
2023-05-17T09:02:27.927Z,102341.78
2023-05-17T09:06:34.174Z,102335.13
2023-05-17T09:10:37.024Z,102331.56
2023-05-17T09:14:39.852Z,102337.16
2023-05-17T09:18:44.153Z,102349.81
2023-05-17T09:22:50.000Z,102344.38
2023-05-17T09:26:52.727Z,102330.81
2023-05-17T09:30:55.504Z,102332.00
2023-05-17T09:35:02.764Z,102337.03
2023-05-17T09:39:07.589Z,102337.16
2023-05-17T09:43:11.012Z,102330.53
2023-05-17T09:47:23.597Z,102344.28
2023-05-17T09:51:34.648Z,102347.88
2023-05-17T09:55:39.260Z,102341.41
2023-05-17T09:59:42.727Z,102344.19
2023-05-17T10:03:45.884Z,102344.19
2023-05-17T10:07:51.648Z,102341.34
2023-05-17T10:11:59.942Z,102341.09
2023-05-17T10:16:03.620Z,102340.47
2023-05-17T10:20:08.747Z,102349.25
2023-05-17T10:24:13.602Z,102345.38
2023-05-17T10:28:18.916Z,102348.56
2023-05-17T10:32:26.751Z,102349.19
2023-05-17T10:36:30.105Z,102343.41
2023-05-17T10:40:36.852Z,102348.78
2023-05-17T10:44:40.534Z,102338.69
2023-05-17T10:48:45.619Z,102336.72
2023-05-17T10:52:49.802Z,102329.69
2023-05-17T10:56:55.797Z,102327.34
2023-05-17T11:00:58.637Z,102322.19
2023-05-17T11:05:02.498Z,102324.84
2023-05-17T11:09:09.675Z,102320.94
2023-05-17T11:13:27.282Z,102327.47
2023-05-17T11:17:36.690Z,102326.38
2023-05-17T11:21:47.369Z,102320.41
2023-05-17T11:25:52.159Z,102325.91
2023-05-17T11:30:00.273Z,102326.06
2023-05-17T11:34:04.240Z,102326.81
2023-05-17T11:38:18.552Z,102326.31
2023-05-17T11:42:25.532Z,102320.59
2023-05-17T11:46:30.606Z,102326.88
2023-05-17T11:50:36.926Z,102328.69
2023-05-17T11:54:42.937Z,102320.78
2023-05-17T11:58:47.257Z,102320.56
2023-05-17T12:02:51.374Z,102312.22
2023-05-17T12:06:55.670Z,102314.13
2023-05-17T12:10:59.257Z,102323.13
2023-05-17T12:15:02.024Z,102315.47
2023-05-17T12:19:18.422Z,102329.06
2023-05-17T12:23:27.385Z,102326.19
2023-05-17T12:27:31.388Z,102321.84
2023-05-17T12:31:37.736Z,102326.22
2023-05-17T12:35:42.051Z,102324.59
2023-05-17T12:39:45.251Z,102335.63
2023-05-17T12:43:47.990Z,102322.19
2023-05-17T12:47:51.283Z,102320.94
2023-05-17T12:51:55.576Z,102326.44
2023-05-17T12:55:59.161Z,102318.59
2023-05-17T13:00:08.176Z,102316.44
2023-05-17T13:04:11.392Z,102312.84
2023-05-17T13:08:21.923Z,102324.28
2023-05-17T13:12:25.558Z,102319.75
2023-05-17T13:16:31.344Z,102311.97
2023-05-17T13:20:34.077Z,102303.06
2023-05-17T13:24:40.640Z,102302.69
2023-05-17T13:28:43.473Z,102288.72
2023-05-17T13:32:47.534Z,102290.56
2023-05-17T13:36:50.699Z,102293.31
2023-05-17T13:40:55.124Z,102291.69
2023-05-17T13:44:58.058Z,102292.13
2023-05-17T13:49:02.758Z,102288.66
2023-05-17T13:53:05.630Z,102292.03
2023-05-17T13:57:12.722Z,102289.78
2023-05-17T14:01:15.687Z,102291.75
2023-05-17T14:05:18.479Z,102289.25
2023-05-17T14:09:21.591Z,102291.38
2023-05-17T14:13:27.377Z,102291.91
2023-05-17T14:17:30.863Z,102294.41
2023-05-17T14:21:33.764Z,102297.16
2023-05-17T14:25:36.776Z,102308.09
2023-05-17T14:29:41.739Z,102301.94
2023-05-17T14:33:45.670Z,102305.16
2023-05-17T14:37:49.159Z,102300.19
2023-05-17T14:41:52.170Z,102302.63
2023-05-17T14:45:56.499Z,102295.41
2023-05-17T14:49:59.845Z,102290.94
2023-05-17T14:54:08.566Z,102298.94
2023-05-17T14:58:13.494Z,102288.75
2023-05-17T15:02:19.800Z,102298.09
2023-05-17T15:06:25.497Z,102295.09
2023-05-17T15:10:28.778Z,102289.38
2023-05-17T15:14:33.900Z,102297.38
2023-05-17T15:18:38.285Z,102286.75
2023-05-17T15:22:41.386Z,102287.88
2023-05-17T15:26:44.481Z,102299.34
2023-05-17T15:30:47.774Z,102299.69
2023-05-17T15:34:52.610Z,102298.94
2023-05-17T15:38:55.641Z,102285.16
2023-05-17T15:42:59.472Z,102297.56
2023-05-17T15:47:03.447Z,102287.59
2023-05-17T15:51:09.041Z,102286.84
2023-05-17T15:55:13.207Z,102286.81
2023-05-17T15:59:28.711Z,102290.75
2023-05-17T16:03:42.417Z,102283.13
2023-05-17T16:07:51.988Z,102291.97
2023-05-17T16:11:54.896Z,102287.88
2023-05-17T16:16:07.317Z,102287.47
2023-05-17T16:20:11.470Z,102288.63
2023-05-17T16:24:15.687Z,102296.38
2023-05-17T16:28:21.621Z,102302.78
2023-05-17T16:32:30.420Z,102300.72
2023-05-17T16:36:40.844Z,102306.56
2023-05-17T16:40:44.948Z,102307.69
2023-05-17T16:44:48.055Z,102313.28
2023-05-17T16:48:52.634Z,102306.72
2023-05-17T16:52:55.568Z,102311.84
2023-05-17T16:56:59.948Z,102309.28
2023-05-17T17:01:03.202Z,102307.66
2023-05-17T17:05:07.087Z,102321.66
2023-05-17T17:09:11.664Z,102321.00
2023-05-17T17:13:15.885Z,102324.97
2023-05-17T17:17:19.209Z,102323.47
2023-05-17T17:21:23.052Z,102334.41
2023-05-17T17:25:26.663Z,102326.38
2023-05-17T17:29:32.498Z,102334.81
2023-05-17T17:33:36.558Z,102338.00
2023-05-17T17:37:39.603Z,102335.81
2023-05-17T17:41:42.404Z,102347.19
2023-05-17T17:45:47.282Z,102346.81
2023-05-17T17:49:50.450Z,102346.59
2023-05-17T17:53:53.845Z,102353.66
2023-05-17T17:57:58.014Z,102344.78
2023-05-17T18:02:04.905Z,102353.66
2023-05-17T18:06:09.160Z,102363.69
2023-05-17T18:10:25.168Z,102364.38
2023-05-17T18:14:44.380Z,102366.41
2023-05-17T18:18:55.991Z,102367.28
2023-05-17T18:22:59.530Z,102369.91
2023-05-17T18:27:04.470Z,102367.63
2023-05-17T18:31:07.798Z,102369.13
2023-05-17T18:35:12.430Z,102361.38
2023-05-17T18:39:16.761Z,102362.09
2023-05-17T18:43:19.801Z,102362.53
2023-05-17T18:47:23.433Z,102366.53
2023-05-17T18:51:28.899Z,102360.69
2023-05-17T18:55:33.110Z,102368.94
2023-05-17T18:59:36.957Z,102368.97
2023-05-17T19:03:41.140Z,102376.75
2023-05-17T19:07:56.329Z,102375.38
2023-05-17T19:12:06.934Z,102383.59
2023-05-17T19:16:11.986Z,102381.97
2023-05-17T19:20:15.849Z,102390.47
2023-05-17T19:24:21.485Z,102391.75
2023-05-17T19:28:25.065Z,102397.06
2023-05-17T19:32:32.843Z,102410.72
2023-05-17T19:36:36.010Z,102409.22
2023-05-17T19:40:41.284Z,102410.28
2023-05-17T19:44:44.384Z,102418.25
2023-05-17T19:48:47.805Z,102416.38
2023-05-17T19:52:56.428Z,102415.53
2023-05-17T19:57:02.150Z,102423.69
2023-05-17T20:01:05.249Z,102429.94
2023-05-17T20:05:08.868Z,102422.56
2023-05-17T20:09:40.143Z,102422.56
2023-05-17T20:13:44.469Z,102417.69
2023-05-17T20:17:50.280Z,102418.94
2023-05-17T20:21:55.817Z,102424.97
2023-05-17T20:25:59.000Z,102424.13
2023-05-17T20:30:05.475Z,102424.50
2023-05-17T20:34:08.906Z,102419.84
2023-05-17T20:38:12.144Z,102418.97
2023-05-17T20:42:18.023Z,102418.31
2023-05-17T20:46:23.742Z,102426.84
2023-05-17T20:50:28.843Z,102424.06
2023-05-17T20:54:32.424Z,102420.44
2023-05-17T20:58:35.802Z,102417.47
2023-05-17T21:02:40.713Z,102423.34
2023-05-17T21:06:44.344Z,102422.03
2023-05-17T21:11:00.830Z,102411.56
2023-05-17T21:15:15.252Z,102417.94
2023-05-17T21:19:21.337Z,102410.16
2023-05-17T21:23:24.764Z,102421.47
2023-05-17T21:27:28.838Z,102424.75
2023-05-17T21:31:32.593Z,102429.28
2023-05-17T21:35:40.159Z,102429.78
2023-05-17T21:39:43.810Z,102427.66
2023-05-17T21:43:48.569Z,102431.16
2023-05-17T21:47:51.674Z,102432.78
2023-05-17T21:51:56.138Z,102437.94
2023-05-17T21:56:02.913Z,102439.13
2023-05-17T22:00:12.612Z,102431.75
2023-05-17T22:04:21.358Z,102441.28
2023-05-17T22:08:27.329Z,102434.94
2023-05-17T22:12:31.485Z,102438.63
2023-05-17T22:16:35.136Z,102440.22
2023-05-17T22:20:43.884Z,102446.44
2023-05-17T22:24:50.312Z,102441.78
2023-05-17T22:29:01.229Z,102443.19
2023-05-17T22:33:05.213Z,102449.00
2023-05-17T22:37:10.368Z,102440.38
2023-05-17T22:41:14.648Z,102442.66
2023-05-17T22:45:19.016Z,102433.53
2023-05-17T22:49:22.007Z,102445.19
2023-05-17T22:53:25.364Z,102439.47
2023-05-17T22:57:29.788Z,102444.41
2023-05-17T23:01:32.636Z,102447.72
2023-05-17T23:05:36.887Z,102445.75
2023-05-17T23:09:40.730Z,102452.56
2023-05-17T23:13:45.409Z,102453.78
2023-05-17T23:17:49.068Z,102446.41
2023-05-17T23:21:56.087Z,102451.53
2023-05-17T23:25:59.288Z,102448.53
2023-05-17T23:30:04.720Z,102458.72
2023-05-17T23:34:07.686Z,102447.03
2023-05-17T23:38:10.596Z,102445.53
2023-05-17T23:42:13.532Z,102457.41
2023-05-17T23:46:19.987Z,102470.50
2023-05-17T23:50:22.941Z,102463.28
2023-05-17T23:54:25.810Z,102463.16
2023-05-17T23:58:28.580Z,102457.84
